sensor_id;sensor_type;location;lat;lon;timestamp;P1;durP1;ratioP1;P2;durP2;ratioP2
2201;SDS011;1107;48.654;9.250;2023-02-28T00:01:17;3.20;;;3.00;;
2201;SDS011;1107;48.654;9.250;2023-02-28T00:03:44;4.05;;;2.55;;
2201;SDS011;1107;48.654;9.250;2023-02-28T00:06:11;3.40;;;3.20;;
2201;SDS011;1107;48.654;9.250;2023-02-28T00:08:38;3.45;;;3.15;;
2201;SDS011;1107;48.654;9.250;2023-02-28T00:11:08;2.85;;;2.65;;
2201;SDS011;1107;48.654;9.250;2023-02-28T00:13:37;2.65;;;2.45;;
2201;SDS011;1107;48.654;9.250;2023-02-28T00:16:07;4.80;;;3.55;;
2201;SDS011;1107;48.654;9.250;2023-02-28T00:18:35;3.53;;;3.33;;
2201;SDS011;1107;48.654;9.250;2023-02-28T00:21:02;3.25;;;3.05;;
2201;SDS011;1107;48.654;9.250;2023-02-28T00:23:29;3.60;;;3.28;;
2201;SDS011;1107;48.654;9.250;2023-02-28T00:25:56;3.75;;;3.38;;
2201;SDS011;1107;48.654;9.250;2023-02-28T00:28:24;3.10;;;2.90;;
2201;SDS011;1107;48.654;9.250;2023-02-28T00:30:51;8.68;;;3.47;;
2201;SDS011;1107;48.654;9.250;2023-02-28T00:33:18;3.78;;;3.47;;
2201;SDS011;1107;48.654;9.250;2023-02-28T00:35:45;6.43;;;3.55;;
2201;SDS011;1107;48.654;9.250;2023-02-28T00:38:13;5.65;;;3.00;;
2201;SDS011;1107;48.654;9.250;2023-02-28T00:40:41;3.20;;;3.00;;
2201;SDS011;1107;48.654;9.250;2023-02-28T00:43:08;3.45;;;3.13;;
2201;SDS011;1107;48.654;9.250;2023-02-28T00:45:36;3.10;;;2.90;;
2201;SDS011;1107;48.654;9.250;2023-02-28T00:48:03;5.28;;;3.72;;
2201;SDS011;1107;48.654;9.250;2023-02-28T00:50:31;4.13;;;3.17;;
2201;SDS011;1107;48.654;9.250;2023-02-28T00:52:58;3.15;;;2.90;;
2201;SDS011;1107;48.654;9.250;2023-02-28T00:55:25;4.32;;;3.70;;
2201;SDS011;1107;48.654;9.250;2023-02-28T00:57:52;3.10;;;2.90;;
2201;SDS011;1107;48.654;9.250;2023-02-28T01:00:19;3.22;;;2.70;;
2201;SDS011;1107;48.654;9.250;2023-02-28T01:02:47;3.20;;;3.00;;
2201;SDS011;1107;48.654;9.250;2023-02-28T01:05:14;3.13;;;2.83;;
2201;SDS011;1107;48.654;9.250;2023-02-28T01:07:41;2.78;;;2.58;;
2201;SDS011;1107;48.654;9.250;2023-02-28T01:10:08;3.20;;;2.90;;
2201;SDS011;1107;48.654;9.250;2023-02-28T01:12:37;3.40;;;3.20;;
2201;SDS011;1107;48.654;9.250;2023-02-28T01:15:04;3.40;;;2.08;;
2201;SDS011;1107;48.654;9.250;2023-02-28T01:17:32;5.20;;;2.85;;
2201;SDS011;1107;48.654;9.250;2023-02-28T01:20:00;3.25;;;3.05;;
2201;SDS011;1107;48.654;9.250;2023-02-28T01:22:27;3.47;;;3.20;;
2201;SDS011;1107;48.654;9.250;2023-02-28T01:24:54;4.22;;;3.92;;
2201;SDS011;1107;48.654;9.250;2023-02-28T01:27:21;3.45;;;3.15;;
2201;SDS011;1107;48.654;9.250;2023-02-28T01:29:48;3.22;;;2.92;;
2201;SDS011;1107;48.654;9.250;2023-02-28T01:32:17;3.05;;;2.85;;
2201;SDS011;1107;48.654;9.250;2023-02-28T01:34:44;3.55;;;2.92;;
2201;SDS011;1107;48.654;9.250;2023-02-28T01:37:12;3.80;;;3.25;;
2201;SDS011;1107;48.654;9.250;2023-02-28T01:39:39;3.22;;;3.03;;
2201;SDS011;1107;48.654;9.250;2023-02-28T01:42:07;3.75;;;3.47;;
2201;SDS011;1107;48.654;9.250;2023-02-28T01:47:29;4.40;;;3.63;;
2201;SDS011;1107;48.654;9.250;2023-02-28T01:49:59;4.43;;;2.78;;
2201;SDS011;1107;48.654;9.250;2023-02-28T01:52:31;3.65;;;3.35;;
2201;SDS011;1107;48.654;9.250;2023-02-28T01:54:59;3.42;;;3.15;;
2201;SDS011;1107;48.654;9.250;2023-02-28T01:57:28;3.90;;;3.50;;
2201;SDS011;1107;48.654;9.250;2023-02-28T02:00:03;4.80;;;3.35;;
2201;SDS011;1107;48.654;9.250;2023-02-28T02:02:35;4.90;;;4.50;;
2201;SDS011;1107;48.654;9.250;2023-02-28T02:05:04;3.28;;;3.08;;
2201;SDS011;1107;48.654;9.250;2023-02-28T02:07:35;3.00;;;2.80;;
2201;SDS011;1107;48.654;9.250;2023-02-28T02:10:05;4.03;;;3.75;;
2201;SDS011;1107;48.654;9.250;2023-02-28T02:12:42;3.58;;;3.28;;
2201;SDS011;1107;48.654;9.250;2023-02-28T02:15:28;3.90;;;3.60;;
2201;SDS011;1107;48.654;9.250;2023-02-28T02:18:01;6.65;;;4.00;;
2201;SDS011;1107;48.654;9.250;2023-02-28T02:20:45;3.45;;;3.25;;
2201;SDS011;1107;48.654;9.250;2023-02-28T02:23:29;3.45;;;3.15;;
2201;SDS011;1107;48.654;9.250;2023-02-28T02:26:21;4.00;;;3.70;;
2201;SDS011;1107;48.654;9.250;2023-02-28T02:29:20;3.90;;;3.60;;
2201;SDS011;1107;48.654;9.250;2023-02-28T02:32:13;3.47;;;3.22;;
2201;SDS011;1107;48.654;9.250;2023-02-28T02:34:54;4.28;;;3.97;;
2201;SDS011;1107;48.654;9.250;2023-02-28T02:37:29;3.88;;;3.47;;
2201;SDS011;1107;48.654;9.250;2023-02-28T02:40:07;3.38;;;3.13;;
2201;SDS011;1107;48.654;9.250;2023-02-28T02:42:41;3.38;;;3.13;;
2201;SDS011;1107;48.654;9.250;2023-02-28T02:45:16;4.07;;;3.78;;
2201;SDS011;1107;48.654;9.250;2023-02-28T02:47:48;8.15;;;3.45;;
2201;SDS011;1107;48.654;9.250;2023-02-28T02:50:19;3.70;;;3.40;;
2201;SDS011;1107;48.654;9.250;2023-02-28T02:52:51;3.63;;;3.42;;
2201;SDS011;1107;48.654;9.250;2023-02-28T02:55:22;4.40;;;4.05;;
2201;SDS011;1107;48.654;9.250;2023-02-28T02:57:50;4.30;;;4.00;;
2201;SDS011;1107;48.654;9.250;2023-02-28T03:00:21;4.03;;;3.83;;
2201;SDS011;1107;48.654;9.250;2023-02-28T03:02:52;4.00;;;3.60;;
2201;SDS011;1107;48.654;9.250;2023-02-28T03:05:23;4.13;;;2.95;;
2201;SDS011;1107;48.654;9.250;2023-02-28T03:07:52;4.35;;;4.05;;
2201;SDS011;1107;48.654;9.250;2023-02-28T03:10:26;3.63;;;3.40;;
2201;SDS011;1107;48.654;9.250;2023-02-28T03:12:58;4.63;;;4.25;;
2201;SDS011;1107;48.654;9.250;2023-02-28T03:15:36;4.07;;;3.67;;
2201;SDS011;1107;48.654;9.250;2023-02-28T03:18:16;3.70;;;3.40;;
2201;SDS011;1107;48.654;9.250;2023-02-28T03:20:53;7.43;;;4.63;;
2201;SDS011;1107;48.654;9.250;2023-02-28T03:23:28;3.30;;;3.10;;
2201;SDS011;1107;48.654;9.250;2023-02-28T03:26:02;4.43;;;4.03;;
2201;SDS011;1107;48.654;9.250;2023-02-28T03:28:35;4.28;;;3.53;;
2201;SDS011;1107;48.654;9.250;2023-02-28T03:31:10;4.20;;;3.90;;
2201;SDS011;1107;48.654;9.250;2023-02-28T03:33:44;4.82;;;4.22;;
2201;SDS011;1107;48.654;9.250;2023-02-28T03:36:21;8.25;;;4.30;;
2201;SDS011;1107;48.654;9.250;2023-02-28T03:38:53;4.75;;;4.32;;
2201;SDS011;1107;48.654;9.250;2023-02-28T03:41:29;5.50;;;4.40;;
2201;SDS011;1107;48.654;9.250;2023-02-28T03:43:59;5.15;;;4.50;;
2201;SDS011;1107;48.654;9.250;2023-02-28T03:46:32;4.55;;;4.25;;
2201;SDS011;1107;48.654;9.250;2023-02-28T03:49:03;3.80;;;3.50;;
2201;SDS011;1107;48.654;9.250;2023-02-28T03:51:38;4.65;;;4.22;;
2201;SDS011;1107;48.654;9.250;2023-02-28T03:54:09;4.72;;;4.43;;
2201;SDS011;1107;48.654;9.250;2023-02-28T03:56:42;4.35;;;4.05;;
2201;SDS011;1107;48.654;9.250;2023-02-28T03:59:15;4.47;;;4.18;;
2201;SDS011;1107;48.654;9.250;2023-02-28T04:01:47;4.55;;;4.10;;
2201;SDS011;1107;48.654;9.250;2023-02-28T04:04:15;4.60;;;4.30;;
2201;SDS011;1107;48.654;9.250;2023-02-28T04:06:44;4.30;;;3.90;;
2201;SDS011;1107;48.654;9.250;2023-02-28T04:09:12;3.85;;;3.55;;
2201;SDS011;1107;48.654;9.250;2023-02-28T04:11:40;4.28;;;3.97;;
2201;SDS011;1107;48.654;9.250;2023-02-28T04:14:09;2.63;;;2.42;;
2201;SDS011;1107;48.654;9.250;2023-02-28T04:16:38;5.38;;;4.72;;
2201;SDS011;1107;48.654;9.250;2023-02-28T04:19:07;4.50;;;4.13;;
2201;SDS011;1107;48.654;9.250;2023-02-28T04:21:36;4.20;;;3.90;;
2201;SDS011;1107;48.654;9.250;2023-02-28T04:24:07;4.40;;;4.13;;
2201;SDS011;1107;48.654;9.250;2023-02-28T04:26:39;4.57;;;4.28;;
2201;SDS011;1107;48.654;9.250;2023-02-28T04:29:08;7.35;;;4.85;;
2201;SDS011;1107;48.654;9.250;2023-02-28T04:31:37;4.63;;;4.32;;
2201;SDS011;1107;48.654;9.250;2023-02-28T04:34:04;5.10;;;4.80;;
2201;SDS011;1107;48.654;9.250;2023-02-28T04:36:32;5.93;;;4.93;;
2201;SDS011;1107;48.654;9.250;2023-02-28T04:38:59;6.65;;;3.88;;
2201;SDS011;1107;48.654;9.250;2023-02-28T04:41:27;5.75;;;4.70;;
2201;SDS011;1107;48.654;9.250;2023-02-28T04:43:54;4.70;;;4.40;;
2201;SDS011;1107;48.654;9.250;2023-02-28T04:46:22;5.63;;;5.22;;
2201;SDS011;1107;48.654;9.250;2023-02-28T04:48:49;7.35;;;5.25;;
2201;SDS011;1107;48.654;9.250;2023-02-28T04:51:16;4.47;;;4.15;;
2201;SDS011;1107;48.654;9.250;2023-02-28T04:53:44;4.50;;;4.20;;
2201;SDS011;1107;48.654;9.250;2023-02-28T04:56:12;4.93;;;4.53;;
2201;SDS011;1107;48.654;9.250;2023-02-28T04:58:42;5.85;;;4.47;;
2201;SDS011;1107;48.654;9.250;2023-02-28T05:01:17;4.38;;;4.07;;
2201;SDS011;1107;48.654;9.250;2023-02-28T05:03:46;5.25;;;4.55;;
2201;SDS011;1107;48.654;9.250;2023-02-28T05:06:14;5.38;;;4.97;;
2201;SDS011;1107;48.654;9.250;2023-02-28T05:08:42;5.78;;;5.38;;
2201;SDS011;1107;48.654;9.250;2023-02-28T05:11:12;6.15;;;5.38;;
2201;SDS011;1107;48.654;9.250;2023-02-28T05:13:44;5.13;;;4.80;;
2201;SDS011;1107;48.654;9.250;2023-02-28T05:16:11;5.47;;;4.97;;
2201;SDS011;1107;48.654;9.250;2023-02-28T05:18:38;5.70;;;5.30;;
2201;SDS011;1107;48.654;9.250;2023-02-28T05:21:05;6.40;;;5.10;;
2201;SDS011;1107;48.654;9.250;2023-02-28T05:23:32;5.35;;;4.82;;
2201;SDS011;1107;48.654;9.250;2023-02-28T05:25:59;8.35;;;5.40;;
2201;SDS011;1107;48.654;9.250;2023-02-28T05:28:26;4.00;;;3.63;;
2201;SDS011;1107;48.654;9.250;2023-02-28T05:30:54;6.28;;;5.35;;
2201;SDS011;1107;48.654;9.250;2023-02-28T05:33:21;5.57;;;5.00;;
2201;SDS011;1107;48.654;9.250;2023-02-28T05:35:48;4.88;;;4.45;;
2201;SDS011;1107;48.654;9.250;2023-02-28T05:38:15;7.13;;;6.40;;
2201;SDS011;1107;48.654;9.250;2023-02-28T05:40:42;6.10;;;5.55;;
2201;SDS011;1107;48.654;9.250;2023-02-28T05:43:10;4.95;;;4.47;;
2201;SDS011;1107;48.654;9.250;2023-02-28T05:45:37;5.97;;;5.35;;
2201;SDS011;1107;48.654;9.250;2023-02-28T05:48:06;5.85;;;5.40;;
2201;SDS011;1107;48.654;9.250;2023-02-28T05:50:34;5.40;;;4.97;;
2201;SDS011;1107;48.654;9.250;2023-02-28T05:53:01;5.75;;;5.35;;
2201;SDS011;1107;48.654;9.250;2023-02-28T05:55:28;5.63;;;5.25;;
2201;SDS011;1107;48.654;9.250;2023-02-28T05:57:55;6.88;;;6.00;;
2201;SDS011;1107;48.654;9.250;2023-02-28T06:00:22;7.75;;;5.43;;
2201;SDS011;1107;48.654;9.250;2023-02-28T06:02:49;5.88;;;5.30;;
2201;SDS011;1107;48.654;9.250;2023-02-28T06:05:19;9.10;;;5.97;;
2201;SDS011;1107;48.654;9.250;2023-02-28T06:07:46;6.68;;;5.65;;
2201;SDS011;1107;48.654;9.250;2023-02-28T06:10:13;6.43;;;5.80;;
2201;SDS011;1107;48.654;9.250;2023-02-28T06:12:40;5.00;;;4.63;;
2201;SDS011;1107;48.654;9.250;2023-02-28T06:15:09;6.60;;;5.15;;
2201;SDS011;1107;48.654;9.250;2023-02-28T06:17:38;5.43;;;5.03;;
2201;SDS011;1107;48.654;9.250;2023-02-28T06:20:05;6.13;;;5.72;;
2201;SDS011;1107;48.654;9.250;2023-02-28T06:22:34;6.57;;;6.07;;
2201;SDS011;1107;48.654;9.250;2023-02-28T06:25:02;5.72;;;5.43;;
2201;SDS011;1107;48.654;9.250;2023-02-28T06:27:29;5.55;;;5.25;;
2201;SDS011;1107;48.654;9.250;2023-02-28T06:29:56;6.85;;;6.18;;
2201;SDS011;1107;48.654;9.250;2023-02-28T06:32:23;6.18;;;5.57;;
2201;SDS011;1107;48.654;9.250;2023-02-28T06:34:51;7.25;;;6.55;;
2201;SDS011;1107;48.654;9.250;2023-02-28T06:37:18;6.20;;;5.70;;
2201;SDS011;1107;48.654;9.250;2023-02-28T06:39:46;7.03;;;5.63;;
2201;SDS011;1107;48.654;9.250;2023-02-28T06:42:13;6.95;;;6.35;;
2201;SDS011;1107;48.654;9.250;2023-02-28T06:44:40;5.93;;;5.50;;
2201;SDS011;1107;48.654;9.250;2023-02-28T06:47:08;6.30;;;5.15;;
2201;SDS011;1107;48.654;9.250;2023-02-28T06:49:35;6.32;;;5.82;;
2201;SDS011;1107;48.654;9.250;2023-02-28T06:52:04;7.22;;;6.63;;
2201;SDS011;1107;48.654;9.250;2023-02-28T06:54:31;6.57;;;6.03;;
2201;SDS011;1107;48.654;9.250;2023-02-28T06:56:59;6.88;;;6.18;;
2201;SDS011;1107;48.654;9.250;2023-02-28T06:59:26;9.27;;;7.28;;
2201;SDS011;1107;48.654;9.250;2023-02-28T07:01:53;8.73;;;7.93;;
2201;SDS011;1107;48.654;9.250;2023-02-28T07:04:20;6.30;;;5.75;;
2201;SDS011;1107;48.654;9.250;2023-02-28T07:06:48;12.73;;;5.70;;
2201;SDS011;1107;48.654;9.250;2023-02-28T07:09:15;11.00;;;8.85;;
2201;SDS011;1107;48.654;9.250;2023-02-28T07:11:42;7.07;;;6.50;;
2201;SDS011;1107;48.654;9.250;2023-02-28T07:14:10;6.88;;;6.38;;
2201;SDS011;1107;48.654;9.250;2023-02-28T07:16:37;6.95;;;6.25;;
2201;SDS011;1107;48.654;9.250;2023-02-28T07:19:04;7.07;;;6.20;;
2201;SDS011;1107;48.654;9.250;2023-02-28T07:21:31;6.07;;;5.55;;
2201;SDS011;1107;48.654;9.250;2023-02-28T07:23:58;8.77;;;6.03;;
2201;SDS011;1107;48.654;9.250;2023-02-28T07:26:25;6.70;;;6.18;;
2201;SDS011;1107;48.654;9.250;2023-02-28T07:28:52;6.07;;;5.32;;
2201;SDS011;1107;48.654;9.250;2023-02-28T07:31:20;6.45;;;5.85;;
2201;SDS011;1107;48.654;9.250;2023-02-28T07:33:47;7.10;;;6.50;;
2201;SDS011;1107;48.654;9.250;2023-02-28T07:36:15;7.03;;;6.32;;
2201;SDS011;1107;48.654;9.250;2023-02-28T07:38:45;7.03;;;6.43;;
2201;SDS011;1107;48.654;9.250;2023-02-28T07:41:15;5.70;;;4.95;;
2201;SDS011;1107;48.654;9.250;2023-02-28T07:43:42;12.82;;;7.05;;
2201;SDS011;1107;48.654;9.250;2023-02-28T07:46:11;6.78;;;6.35;;
2201;SDS011;1107;48.654;9.250;2023-02-28T07:48:41;8.48;;;7.70;;
2201;SDS011;1107;48.654;9.250;2023-02-28T07:51:08;6.82;;;6.00;;
2201;SDS011;1107;48.654;9.250;2023-02-28T07:53:36;7.00;;;6.30;;
2201;SDS011;1107;48.654;9.250;2023-02-28T07:56:03;7.55;;;6.68;;
2201;SDS011;1107;48.654;9.250;2023-02-28T07:58:31;10.90;;;7.20;;
2201;SDS011;1107;48.654;9.250;2023-02-28T08:01:04;9.05;;;7.95;;
2201;SDS011;1107;48.654;9.250;2023-02-28T08:03:31;7.68;;;6.88;;
2201;SDS011;1107;48.654;9.250;2023-02-28T08:06:00;8.95;;;8.05;;
2201;SDS011;1107;48.654;9.250;2023-02-28T08:08:27;8.27;;;7.55;;
2201;SDS011;1107;48.654;9.250;2023-02-28T08:10:57;9.05;;;7.00;;
2201;SDS011;1107;48.654;9.250;2023-02-28T08:13:25;8.07;;;7.35;;
2201;SDS011;1107;48.654;9.250;2023-02-28T08:15:52;6.80;;;6.30;;
2201;SDS011;1107;48.654;9.250;2023-02-28T08:18:19;8.52;;;7.55;;
2201;SDS011;1107;48.654;9.250;2023-02-28T08:20:46;10.98;;;7.53;;
2201;SDS011;1107;48.654;9.250;2023-02-28T08:23:15;8.20;;;7.32;;
2201;SDS011;1107;48.654;9.250;2023-02-28T08:25:42;9.48;;;7.22;;
2201;SDS011;1107;48.654;9.250;2023-02-28T08:28:09;13.25;;;8.40;;
2201;SDS011;1107;48.654;9.250;2023-02-28T08:30:36;15.52;;;7.40;;
2201;SDS011;1107;48.654;9.250;2023-02-28T08:33:05;10.98;;;8.35;;
2201;SDS011;1107;48.654;9.250;2023-02-28T08:35:35;6.57;;;6.00;;
2201;SDS011;1107;48.654;9.250;2023-02-28T08:38:02;6.82;;;6.07;;
2201;SDS011;1107;48.654;9.250;2023-02-28T08:40:30;8.65;;;6.70;;
2201;SDS011;1107;48.654;9.250;2023-02-28T08:42:57;7.32;;;6.07;;
2201;SDS011;1107;48.654;9.250;2023-02-28T08:45:24;8.07;;;7.38;;
2201;SDS011;1107;48.654;9.250;2023-02-28T08:47:51;10.02;;;8.18;;
2201;SDS011;1107;48.654;9.250;2023-02-28T08:50:20;10.02;;;8.05;;
2201;SDS011;1107;48.654;9.250;2023-02-28T08:52:47;10.23;;;7.00;;
2201;SDS011;1107;48.654;9.250;2023-02-28T08:55:14;11.35;;;8.07;;
2201;SDS011;1107;48.654;9.250;2023-02-28T08:57:42;7.78;;;6.68;;
2201;SDS011;1107;48.654;9.250;2023-02-28T09:00:10;5.72;;;5.32;;
2201;SDS011;1107;48.654;9.250;2023-02-28T09:02:38;9.35;;;7.30;;
2201;SDS011;1107;48.654;9.250;2023-02-28T09:05:08;7.95;;;7.22;;
2201;SDS011;1107;48.654;9.250;2023-02-28T09:07:35;10.20;;;7.72;;
2201;SDS011;1107;48.654;9.250;2023-02-28T09:10:02;7.32;;;6.72;;
2201;SDS011;1107;48.654;9.250;2023-02-28T09:12:32;9.77;;;8.43;;
2201;SDS011;1107;48.654;9.250;2023-02-28T09:15:02;6.85;;;6.18;;
2201;SDS011;1107;48.654;9.250;2023-02-28T09:17:29;10.13;;;7.43;;
2201;SDS011;1107;48.654;9.250;2023-02-28T09:19:56;6.80;;;5.65;;
2201;SDS011;1107;48.654;9.250;2023-02-28T09:22:24;11.30;;;7.90;;
2201;SDS011;1107;48.654;9.250;2023-02-28T09:24:51;10.30;;;8.45;;
2201;SDS011;1107;48.654;9.250;2023-02-28T09:27:18;8.27;;;7.57;;
2201;SDS011;1107;48.654;9.250;2023-02-28T09:29:45;7.18;;;6.43;;
2201;SDS011;1107;48.654;9.250;2023-02-28T09:32:13;15.75;;;7.20;;
2201;SDS011;1107;48.654;9.250;2023-02-28T09:34:40;10.10;;;8.15;;
2201;SDS011;1107;48.654;9.250;2023-02-28T09:37:07;7.75;;;7.13;;
2201;SDS011;1107;48.654;9.250;2023-02-28T09:39:34;12.10;;;8.50;;
2201;SDS011;1107;48.654;9.250;2023-02-28T09:42:02;7.75;;;6.97;;
2201;SDS011;1107;48.654;9.250;2023-02-28T09:44:31;8.77;;;7.25;;
2201;SDS011;1107;48.654;9.250;2023-02-28T09:47:05;10.95;;;7.30;;
2201;SDS011;1107;48.654;9.250;2023-02-28T09:49:40;9.38;;;8.27;;
2201;SDS011;1107;48.654;9.250;2023-02-28T09:52:12;7.05;;;6.35;;
2201;SDS011;1107;48.654;9.250;2023-02-28T09:54:44;5.55;;;5.07;;
2201;SDS011;1107;48.654;9.250;2023-02-28T09:57:14;7.05;;;6.47;;
2201;SDS011;1107;48.654;9.250;2023-02-28T09:59:54;8.27;;;7.15;;
2201;SDS011;1107;48.654;9.250;2023-02-28T10:02:46;6.50;;;5.22;;
2201;SDS011;1107;48.654;9.250;2023-02-28T10:05:26;5.55;;;5.07;;
2201;SDS011;1107;48.654;9.250;2023-02-28T10:08:00;5.63;;;4.53;;
2201;SDS011;1107;48.654;9.250;2023-02-28T10:10:32;8.50;;;7.80;;
2201;SDS011;1107;48.654;9.250;2023-02-28T10:13:04;7.85;;;7.10;;
2201;SDS011;1107;48.654;9.250;2023-02-28T10:15:38;9.60;;;8.38;;
2201;SDS011;1107;48.654;9.250;2023-02-28T10:18:09;10.80;;;8.63;;
2201;SDS011;1107;48.654;9.250;2023-02-28T10:20:40;8.35;;;7.65;;
2201;SDS011;1107;48.654;9.250;2023-02-28T10:23:10;5.18;;;4.65;;
2201;SDS011;1107;48.654;9.250;2023-02-28T10:25:44;9.00;;;7.05;;
2201;SDS011;1107;48.654;9.250;2023-02-28T10:28:16;17.27;;;8.07;;
2201;SDS011;1107;48.654;9.250;2023-02-28T10:30:45;9.52;;;7.18;;
2201;SDS011;1107;48.654;9.250;2023-02-28T10:33:21;8.60;;;7.40;;
2201;SDS011;1107;48.654;9.250;2023-02-28T10:35:51;11.57;;;10.05;;
2201;SDS011;1107;48.654;9.250;2023-02-28T10:38:20;9.90;;;8.88;;
2201;SDS011;1107;48.654;9.250;2023-02-28T10:40:49;9.02;;;7.05;;
2201;SDS011;1107;48.654;9.250;2023-02-28T10:43:18;10.27;;;9.13;;
2201;SDS011;1107;48.654;9.250;2023-02-28T10:45:56;8.15;;;7.13;;
2201;SDS011;1107;48.654;9.250;2023-02-28T10:48:27;10.50;;;6.72;;
2201;SDS011;1107;48.654;9.250;2023-02-28T10:50:59;8.05;;;7.30;;
2201;SDS011;1107;48.654;9.250;2023-02-28T10:53:30;10.88;;;7.75;;
2201;SDS011;1107;48.654;9.250;2023-02-28T10:56:01;11.00;;;9.15;;
2201;SDS011;1107;48.654;9.250;2023-02-28T10:58:30;8.13;;;7.32;;
2201;SDS011;1107;48.654;9.250;2023-02-28T11:01:11;9.55;;;8.63;;
2201;SDS011;1107;48.654;9.250;2023-02-28T11:03:40;15.05;;;9.65;;
2201;SDS011;1107;48.654;9.250;2023-02-28T11:06:12;8.95;;;8.15;;
2201;SDS011;1107;48.654;9.250;2023-02-28T11:08:49;9.40;;;8.60;;
2201;SDS011;1107;48.654;9.250;2023-02-28T11:11:18;9.70;;;8.80;;
2201;SDS011;1107;48.654;9.250;2023-02-28T11:13:49;9.73;;;9.00;;
2201;SDS011;1107;48.654;9.250;2023-02-28T11:16:18;9.95;;;8.95;;
2201;SDS011;1107;48.654;9.250;2023-02-28T11:18:47;10.77;;;9.27;;
2201;SDS011;1107;48.654;9.250;2023-02-28T11:21:18;9.87;;;9.07;;
2201;SDS011;1107;48.654;9.250;2023-02-28T11:23:49;10.93;;;9.83;;
2201;SDS011;1107;48.654;9.250;2023-02-28T11:29:11;21.03;;;10.37;;
2201;SDS011;1107;48.654;9.250;2023-02-28T11:31:45;24.50;;;10.13;;
2201;SDS011;1107;48.654;9.250;2023-02-28T11:34:45;10.93;;;10.03;;
2201;SDS011;1107;48.654;9.250;2023-02-28T11:37:17;11.63;;;10.57;;
2201;SDS011;1107;48.654;9.250;2023-02-28T11:39:45;9.25;;;8.52;;
2201;SDS011;1107;48.654;9.250;2023-02-28T11:45:26;9.30;;;8.32;;
2201;SDS011;1107;48.654;9.250;2023-02-28T11:48:11;15.52;;;9.05;;
2201;SDS011;1107;48.654;9.250;2023-02-28T11:50:50;13.07;;;10.65;;
2201;SDS011;1107;48.654;9.250;2023-02-28T11:53:35;11.18;;;9.98;;
2201;SDS011;1107;48.654;9.250;2023-02-28T11:56:14;10.17;;;9.20;;
2201;SDS011;1107;48.654;9.250;2023-02-28T11:58:49;10.30;;;9.30;;
2201;SDS011;1107;48.654;9.250;2023-02-28T12:01:30;10.27;;;9.43;;
2201;SDS011;1107;48.654;9.250;2023-02-28T12:04:10;11.17;;;10.03;;
2201;SDS011;1107;48.654;9.250;2023-02-28T12:06:50;10.40;;;9.30;;
2201;SDS011;1107;48.654;9.250;2023-02-28T12:09:34;11.10;;;10.20;;
2201;SDS011;1107;48.654;9.250;2023-02-28T12:14:50;11.70;;;10.60;;
2201;SDS011;1107;48.654;9.250;2023-02-28T12:17:43;10.70;;;10.00;;
2201;SDS011;1107;48.654;9.250;2023-02-28T12:20:24;11.10;;;9.97;;
2201;SDS011;1107;48.654;9.250;2023-02-28T12:22:59;12.60;;;11.43;;
2201;SDS011;1107;48.654;9.250;2023-02-28T12:25:45;11.57;;;10.60;;
2201;SDS011;1107;48.654;9.250;2023-02-28T12:28:20;11.63;;;10.60;;
2201;SDS011;1107;48.654;9.250;2023-02-28T12:30:50;10.73;;;9.63;;
2201;SDS011;1107;48.654;9.250;2023-02-28T12:33:24;12.00;;;10.93;;
2201;SDS011;1107;48.654;9.250;2023-02-28T12:35:56;11.10;;;10.33;;
2201;SDS011;1107;48.654;9.250;2023-02-28T12:38:25;13.13;;;11.07;;
2201;SDS011;1107;48.654;9.250;2023-02-28T12:40:58;12.27;;;11.17;;
2201;SDS011;1107;48.654;9.250;2023-02-28T12:43:29;12.00;;;10.83;;
2201;SDS011;1107;48.654;9.250;2023-02-28T12:46:00;16.50;;;11.33;;
2201;SDS011;1107;48.654;9.250;2023-02-28T12:48:37;11.80;;;10.80;;
2201;SDS011;1107;48.654;9.250;2023-02-28T12:51:07;11.40;;;10.70;;
2201;SDS011;1107;48.654;9.250;2023-02-28T12:53:38;12.20;;;11.20;;
2201;SDS011;1107;48.654;9.250;2023-02-28T12:56:16;12.20;;;11.17;;
2201;SDS011;1107;48.654;9.250;2023-02-28T12:58:49;13.03;;;11.80;;
2201;SDS011;1107;48.654;9.250;2023-02-28T13:01:30;12.93;;;10.97;;
2201;SDS011;1107;48.654;9.250;2023-02-28T13:04:18;15.47;;;10.97;;
2201;SDS011;1107;48.654;9.250;2023-02-28T13:07:17;12.60;;;11.60;;
2201;SDS011;1107;48.654;9.250;2023-02-28T13:10:07;12.20;;;11.10;;
2201;SDS011;1107;48.654;9.250;2023-02-28T13:12:36;11.70;;;10.70;;
2201;SDS011;1107;48.654;9.250;2023-02-28T13:15:16;11.73;;;10.90;;
2201;SDS011;1107;48.654;9.250;2023-02-28T13:17:48;12.17;;;11.10;;
2201;SDS011;1107;48.654;9.250;2023-02-28T13:20:17;12.27;;;11.10;;
2201;SDS011;1107;48.654;9.250;2023-02-28T13:22:47;12.93;;;11.87;;
2201;SDS011;1107;48.654;9.250;2023-02-28T13:31:33;11.70;;;10.60;;
2201;SDS011;1107;48.654;9.250;2023-02-28T13:34:39;12.43;;;10.80;;
2201;SDS011;1107;48.654;9.250;2023-02-28T13:40:27;11.40;;;10.60;;
2201;SDS011;1107;48.654;9.250;2023-02-28T13:43:01;12.33;;;11.27;;
2201;SDS011;1107;48.654;9.250;2023-02-28T13:45:29;12.80;;;11.60;;
2201;SDS011;1107;48.654;9.250;2023-02-28T13:48:04;15.87;;;11.50;;
2201;SDS011;1107;48.654;9.250;2023-02-28T13:50:42;12.23;;;11.13;;
2201;SDS011;1107;48.654;9.250;2023-02-28T13:56:19;10.90;;;10.17;;
2201;SDS011;1107;48.654;9.250;2023-02-28T13:58:53;11.63;;;10.57;;
2201;SDS011;1107;48.654;9.250;2023-02-28T14:07:19;11.13;;;10.37;;
2201;SDS011;1107;48.654;9.250;2023-02-28T14:09:51;16.43;;;9.70;;
2201;SDS011;1107;48.654;9.250;2023-02-28T14:15:36;11.80;;;10.83;;
2201;SDS011;1107;48.654;9.250;2023-02-28T14:18:13;11.97;;;10.93;;
2201;SDS011;1107;48.654;9.250;2023-02-28T14:20:45;12.60;;;11.50;;
2201;SDS011;1107;48.654;9.250;2023-02-28T14:23:16;12.13;;;11.27;;
2201;SDS011;1107;48.654;9.250;2023-02-28T14:25:54;11.20;;;10.30;;
2201;SDS011;1107;48.654;9.250;2023-02-28T14:28:36;10.40;;;9.60;;
2201;SDS011;1107;48.654;9.250;2023-02-28T14:31:13;10.10;;;9.40;;
2201;SDS011;1107;48.654;9.250;2023-02-28T14:33:56;11.30;;;10.40;;
2201;SDS011;1107;48.654;9.250;2023-02-28T14:36:33;17.53;;;11.03;;
2201;SDS011;1107;48.654;9.250;2023-02-28T14:39:05;10.03;;;9.33;;
2201;SDS011;1107;48.654;9.250;2023-02-28T14:41:35;11.80;;;10.70;;
2201;SDS011;1107;48.654;9.250;2023-02-28T14:44:13;12.23;;;11.20;;
2201;SDS011;1107;48.654;9.250;2023-02-28T14:46:42;12.90;;;10.60;;
2201;SDS011;1107;48.654;9.250;2023-02-28T14:49:13;10.83;;;9.63;;
2201;SDS011;1107;48.654;9.250;2023-02-28T14:51:45;10.23;;;9.53;;
2201;SDS011;1107;48.654;9.250;2023-02-28T14:54:13;9.90;;;9.17;;
2201;SDS011;1107;48.654;9.250;2023-02-28T14:56:43;12.23;;;11.03;;
2201;SDS011;1107;48.654;9.250;2023-02-28T14:59:25;10.87;;;9.87;;
2201;SDS011;1107;48.654;9.250;2023-02-28T15:04:42;10.80;;;9.90;;
2201;SDS011;1107;48.654;9.250;2023-02-28T15:07:19;9.70;;;9.10;;
2201;SDS011;1107;48.654;9.250;2023-02-28T15:10:06;10.70;;;9.80;;
2201;SDS011;1107;48.654;9.250;2023-02-28T15:12:44;12.10;;;11.03;;
2201;SDS011;1107;48.654;9.250;2023-02-28T15:15:17;10.00;;;9.30;;
2201;SDS011;1107;48.654;9.250;2023-02-28T15:17:46;10.63;;;9.67;;
2201;SDS011;1107;48.654;9.250;2023-02-28T15:20:17;10.87;;;9.80;;
2201;SDS011;1107;48.654;9.250;2023-02-28T15:22:46;10.60;;;9.70;;
2201;SDS011;1107;48.654;9.250;2023-02-28T15:25:18;9.60;;;8.77;;
2201;SDS011;1107;48.654;9.250;2023-02-28T15:27:47;25.03;;;10.37;;
2201;SDS011;1107;48.654;9.250;2023-02-28T15:30:16;9.30;;;8.40;;
2201;SDS011;1107;48.654;9.250;2023-02-28T15:32:45;11.13;;;9.93;;
2201;SDS011;1107;48.654;9.250;2023-02-28T15:35:30;10.47;;;9.43;;
2201;SDS011;1107;48.654;9.250;2023-02-28T15:38:01;11.03;;;9.97;;
2201;SDS011;1107;48.654;9.250;2023-02-28T15:40:31;13.47;;;10.50;;
2201;SDS011;1107;48.654;9.250;2023-02-28T15:43:03;10.23;;;9.37;;
2201;SDS011;1107;48.654;9.250;2023-02-28T15:45:32;9.40;;;8.47;;
2201;SDS011;1107;48.654;9.250;2023-02-28T15:48:03;13.40;;;10.20;;
2201;SDS011;1107;48.654;9.250;2023-02-28T15:50:31;10.27;;;9.27;;
2201;SDS011;1107;48.654;9.250;2023-02-28T15:52:58;9.97;;;8.97;;
2201;SDS011;1107;48.654;9.250;2023-02-28T15:55:29;10.77;;;9.50;;
2201;SDS011;1107;48.654;9.250;2023-02-28T15:57:57;10.87;;;9.87;;
2201;SDS011;1107;48.654;9.250;2023-02-28T16:00:28;11.50;;;9.80;;
2201;SDS011;1107;48.654;9.250;2023-02-28T16:02:57;10.93;;;8.40;;
2201;SDS011;1107;48.654;9.250;2023-02-28T16:05:25;10.80;;;9.77;;
2201;SDS011;1107;48.654;9.250;2023-02-28T16:07:57;11.30;;;10.17;;